sensor_id;sensor_type;location;lat;lon;timestamp;temperature;humidity
8557;DHT22;4316;53.840;10.762;2023-05-18T00:00:20;9.20;99.90
8557;DHT22;4316;53.840;10.762;2023-05-18T00:02:48;9.20;99.90
8557;DHT22;4316;53.840;10.762;2023-05-18T00:05:14;9.20;99.90
8557;DHT22;4316;53.840;10.762;2023-05-18T00:07:42;9.10;99.90
8557;DHT22;4316;53.840;10.762;2023-05-18T00:10:08;9.10;99.90
8557;DHT22;4316;53.840;10.762;2023-05-18T00:12:34;9.10;99.90
8557;DHT22;4316;53.840;10.762;2023-05-18T00:14:59;9.00;99.90
8557;DHT22;4316;53.840;10.762;2023-05-18T00:17:25;9.00;99.90
8557;DHT22;4316;53.840;10.762;2023-05-18T00:19:51;9.00;99.90
8557;DHT22;4316;53.840;10.762;2023-05-18T00:22:16;9.00;99.90
8557;DHT22;4316;53.840;10.762;2023-05-18T00:24:46;9.00;99.90
8557;DHT22;4316;53.840;10.762;2023-05-18T00:27:13;9.00;99.90
8557;DHT22;4316;53.840;10.762;2023-05-18T00:29:38;9.00;99.90
8557;DHT22;4316;53.840;10.762;2023-05-18T00:32:04;9.00;99.90
8557;DHT22;4316;53.840;10.762;2023-05-18T00:34:30;10.20;99.90
8557;DHT22;4316;53.840;10.762;2023-05-18T00:36:55;9.00;99.90
8557;DHT22;4316;53.840;10.762;2023-05-18T00:39:21;9.00;99.90
8557;DHT22;4316;53.840;10.762;2023-05-18T00:41:46;8.90;99.90
8557;DHT22;4316;53.840;10.762;2023-05-18T00:44:12;8.80;99.90
8557;DHT22;4316;53.840;10.762;2023-05-18T00:46:37;8.80;99.90
8557;DHT22;4316;53.840;10.762;2023-05-18T00:49:03;8.80;99.90
8557;DHT22;4316;53.840;10.762;2023-05-18T00:51:31;8.70;99.90
8557;DHT22;4316;53.840;10.762;2023-05-18T00:53:58;8.70;99.90
8557;DHT22;4316;53.840;10.762;2023-05-18T00:56:24;8.70;99.90
8557;DHT22;4316;53.840;10.762;2023-05-18T00:58:55;8.70;99.90
8557;DHT22;4316;53.840;10.762;2023-05-18T01:01:27;8.70;99.90
8557;DHT22;4316;53.840;10.762;2023-05-18T01:03:54;8.70;99.90
8557;DHT22;4316;53.840;10.762;2023-05-18T01:06:21;8.60;99.90
8557;DHT22;4316;53.840;10.762;2023-05-18T01:08:51;8.60;99.90
8557;DHT22;4316;53.840;10.762;2023-05-18T01:14:40;8.40;99.90
8557;DHT22;4316;53.840;10.762;2023-05-18T01:17:32;8.40;99.90
8557;DHT22;4316;53.840;10.762;2023-05-18T01:20:06;8.30;99.90
8557;DHT22;4316;53.840;10.762;2023-05-18T01:28:22;8.10;99.90
8557;DHT22;4316;53.840;10.762;2023-05-18T01:30:52;8.10;99.90
8557;DHT22;4316;53.840;10.762;2023-05-18T01:33:18;8.00;99.90
8557;DHT22;4316;53.840;10.762;2023-05-18T01:35:43;8.00;99.90
8557;DHT22;4316;53.840;10.762;2023-05-18T01:38:18;8.00;99.90
8557;DHT22;4316;53.840;10.762;2023-05-18T01:43:33;7.90;99.90
8557;DHT22;4316;53.840;10.762;2023-05-18T01:46:16;7.90;99.90
8557;DHT22;4316;53.840;10.762;2023-05-18T01:48:48;7.80;99.90
8557;DHT22;4316;53.840;10.762;2023-05-18T01:51:17;7.80;99.90
8557;DHT22;4316;53.840;10.762;2023-05-18T01:53:53;7.80;99.90
8557;DHT22;4316;53.840;10.762;2023-05-18T01:56:20;7.80;99.90
8557;DHT22;4316;53.840;10.762;2023-05-18T01:58:46;7.80;99.90
8557;DHT22;4316;53.840;10.762;2023-05-18T02:01:13;7.80;99.90
8557;DHT22;4316;53.840;10.762;2023-05-18T02:03:42;7.80;99.90
8557;DHT22;4316;53.840;10.762;2023-05-18T02:06:08;7.70;99.90
8557;DHT22;4316;53.840;10.762;2023-05-18T02:08:33;7.70;99.90
8557;DHT22;4316;53.840;10.762;2023-05-18T02:10:59;7.70;99.90
8557;DHT22;4316;53.840;10.762;2023-05-18T02:13:24;7.70;99.90
8557;DHT22;4316;53.840;10.762;2023-05-18T02:15:50;7.60;99.90
8557;DHT22;4316;53.840;10.762;2023-05-18T02:18:16;7.60;99.90
8557;DHT22;4316;53.840;10.762;2023-05-18T02:20:41;7.60;99.90
8557;DHT22;4316;53.840;10.762;2023-05-18T02:23:07;7.60;99.90
8557;DHT22;4316;53.840;10.762;2023-05-18T02:25:32;7.50;99.90
8557;DHT22;4316;53.840;10.762;2023-05-18T02:27:58;7.50;99.90
8557;DHT22;4316;53.840;10.762;2023-05-18T02:30:23;7.50;99.90
8557;DHT22;4316;53.840;10.762;2023-05-18T02:32:49;7.50;99.90
8557;DHT22;4316;53.840;10.762;2023-05-18T02:35:16;7.40;99.90
8557;DHT22;4316;53.840;10.762;2023-05-18T02:37:42;7.30;99.90
8557;DHT22;4316;53.840;10.762;2023-05-18T02:40:10;7.30;99.90
8557;DHT22;4316;53.840;10.762;2023-05-18T02:42:36;7.30;99.90
8557;DHT22;4316;53.840;10.762;2023-05-18T02:45:01;7.30;99.90
8557;DHT22;4316;53.840;10.762;2023-05-18T02:47:28;7.30;99.90
8557;DHT22;4316;53.840;10.762;2023-05-18T02:49:54;7.30;99.90
8557;DHT22;4316;53.840;10.762;2023-05-18T02:52:19;7.20;99.90
8557;DHT22;4316;53.840;10.762;2023-05-18T02:54:45;7.20;99.90
8557;DHT22;4316;53.840;10.762;2023-05-18T02:57:16;7.20;99.90
8557;DHT22;4316;53.840;10.762;2023-05-18T02:59:57;7.20;99.90
8557;DHT22;4316;53.840;10.762;2023-05-18T03:02:23;7.20;99.90
8557;DHT22;4316;53.840;10.762;2023-05-18T03:04:49;7.20;99.90
8557;DHT22;4316;53.840;10.762;2023-05-18T03:07:24;7.20;99.90
8557;DHT22;4316;53.840;10.762;2023-05-18T03:09:52;7.20;99.90
8557;DHT22;4316;53.840;10.762;2023-05-18T03:12:17;7.10;99.90
8557;DHT22;4316;53.840;10.762;2023-05-18T03:14:43;7.10;99.90
8557;DHT22;4316;53.840;10.762;2023-05-18T03:17:08;7.10;99.90
8557;DHT22;4316;53.840;10.762;2023-05-18T03:19:34;7.10;99.90
8557;DHT22;4316;53.840;10.762;2023-05-18T03:22:00;7.10;99.90
8557;DHT22;4316;53.840;10.762;2023-05-18T03:24:26;7.10;99.90
8557;DHT22;4316;53.840;10.762;2023-05-18T03:26:55;7.10;99.90
8557;DHT22;4316;53.840;10.762;2023-05-18T03:29:22;7.10;99.90
8557;DHT22;4316;53.840;10.762;2023-05-18T03:31:48;7.00;99.90
8557;DHT22;4316;53.840;10.762;2023-05-18T03:34:14;7.00;99.90
8557;DHT22;4316;53.840;10.762;2023-05-18T03:36:40;7.00;99.90
8557;DHT22;4316;53.840;10.762;2023-05-18T03:39:08;7.00;99.90
8557;DHT22;4316;53.840;10.762;2023-05-18T03:41:34;7.00;99.90
8557;DHT22;4316;53.840;10.762;2023-05-18T03:44:01;7.00;99.90
8557;DHT22;4316;53.840;10.762;2023-05-18T03:46:26;7.00;99.90
8557;DHT22;4316;53.840;10.762;2023-05-18T03:48:52;7.00;99.90
8557;DHT22;4316;53.840;10.762;2023-05-18T03:51:28;7.00;99.90
8557;DHT22;4316;53.840;10.762;2023-05-18T03:53:53;7.00;99.90
8557;DHT22;4316;53.840;10.762;2023-05-18T03:56:19;7.00;99.90
8557;DHT22;4316;53.840;10.762;2023-05-18T03:58:45;7.00;99.90
8557;DHT22;4316;53.840;10.762;2023-05-18T04:01:10;7.00;99.90
8557;DHT22;4316;53.840;10.762;2023-05-18T04:03:36;7.00;99.90
8557;DHT22;4316;53.840;10.762;2023-05-18T04:06:02;7.00;99.90
8557;DHT22;4316;53.840;10.762;2023-05-18T04:08:27;7.00;99.90
8557;DHT22;4316;53.840;10.762;2023-05-18T04:10:54;7.00;99.90
8557;DHT22;4316;53.840;10.762;2023-05-18T04:13:20;7.00;99.90
8557;DHT22;4316;53.840;10.762;2023-05-18T04:15:45;7.00;99.90
8557;DHT22;4316;53.840;10.762;2023-05-18T04:18:12;7.00;99.90
8557;DHT22;4316;53.840;10.762;2023-05-18T04:20:40;7.00;99.90
8557;DHT22;4316;53.840;10.762;2023-05-18T04:23:06;7.00;99.90
8557;DHT22;4316;53.840;10.762;2023-05-18T04:25:34;7.10;99.90
8557;DHT22;4316;53.840;10.762;2023-05-18T04:28:00;7.10;99.90
8557;DHT22;4316;53.840;10.762;2023-05-18T04:30:26;7.10;99.90
8557;DHT22;4316;53.840;10.762;2023-05-18T04:32:54;7.10;99.90
8557;DHT22;4316;53.840;10.762;2023-05-18T04:35:23;7.10;99.90
8557;DHT22;4316;53.840;10.762;2023-05-18T04:37:50;7.20;99.90
8557;DHT22;4316;53.840;10.762;2023-05-18T04:40:17;7.20;99.90
8557;DHT22;4316;53.840;10.762;2023-05-18T04:42:44;7.20;99.90
8557;DHT22;4316;53.840;10.762;2023-05-18T04:45:15;7.20;99.90
8557;DHT22;4316;53.840;10.762;2023-05-18T04:47:44;7.20;99.90
8557;DHT22;4316;53.840;10.762;2023-05-18T04:50:20;7.30;99.90
8557;DHT22;4316;53.840;10.762;2023-05-18T04:52:49;7.40;99.90
8557;DHT22;4316;53.840;10.762;2023-05-18T04:55:18;7.40;99.90
8557;DHT22;4316;53.840;10.762;2023-05-18T04:57:48;7.60;99.90
8557;DHT22;4316;53.840;10.762;2023-05-18T05:00:15;7.70;99.90
8557;DHT22;4316;53.840;10.762;2023-05-18T05:02:41;7.80;99.90
8557;DHT22;4316;53.840;10.762;2023-05-18T05:05:07;7.90;99.90
8557;DHT22;4316;53.840;10.762;2023-05-18T05:07:33;8.00;99.90
8557;DHT22;4316;53.840;10.762;2023-05-18T05:09:58;8.10;99.90
8557;DHT22;4316;53.840;10.762;2023-05-18T05:12:24;8.20;99.90
8557;DHT22;4316;53.840;10.762;2023-05-18T05:14:50;8.40;99.90
8557;DHT22;4316;53.840;10.762;2023-05-18T05:17:18;8.60;99.90
8557;DHT22;4316;53.840;10.762;2023-05-18T05:19:44;8.70;99.90
8557;DHT22;4316;53.840;10.762;2023-05-18T05:22:10;8.90;99.90
8557;DHT22;4316;53.840;10.762;2023-05-18T05:24:36;9.10;99.90
8557;DHT22;4316;53.840;10.762;2023-05-18T05:27:02;9.20;99.90
8557;DHT22;4316;53.840;10.762;2023-05-18T05:29:28;9.30;99.90
8557;DHT22;4316;53.840;10.762;2023-05-18T05:31:53;9.50;99.90
8557;DHT22;4316;53.840;10.762;2023-05-18T05:34:19;9.70;99.90
8557;DHT22;4316;53.840;10.762;2023-05-18T05:36:44;9.70;99.90
8557;DHT22;4316;53.840;10.762;2023-05-18T05:39:10;9.60;99.90
8557;DHT22;4316;53.840;10.762;2023-05-18T05:41:37;9.60;99.90
8557;DHT22;4316;53.840;10.762;2023-05-18T05:44:03;9.60;99.90
8557;DHT22;4316;53.840;10.762;2023-05-18T05:46:29;9.60;99.90
8557;DHT22;4316;53.840;10.762;2023-05-18T05:48:56;9.60;99.90
8557;DHT22;4316;53.840;10.762;2023-05-18T05:51:21;9.60;99.90
8557;DHT22;4316;53.840;10.762;2023-05-18T05:53:47;9.60;99.90
8557;DHT22;4316;53.840;10.762;2023-05-18T05:56:15;9.50;99.90
8557;DHT22;4316;53.840;10.762;2023-05-18T05:58:41;9.50;99.90
8557;DHT22;4316;53.840;10.762;2023-05-18T06:01:07;9.50;99.90
8557;DHT22;4316;53.840;10.762;2023-05-18T06:03:33;9.40;99.90
8557;DHT22;4316;53.840;10.762;2023-05-18T06:06:00;9.40;99.90
8557;DHT22;4316;53.840;10.762;2023-05-18T06:08:27;9.50;99.90
8557;DHT22;4316;53.840;10.762;2023-05-18T06:10:54;9.50;99.90
8557;DHT22;4316;53.840;10.762;2023-05-18T06:13:20;9.60;99.90
8557;DHT22;4316;53.840;10.762;2023-05-18T06:15:50;9.50;99.90
8557;DHT22;4316;53.840;10.762;2023-05-18T06:18:16;9.60;99.90
8557;DHT22;4316;53.840;10.762;2023-05-18T06:20:43;9.60;99.90
8557;DHT22;4316;53.840;10.762;2023-05-18T06:23:08;9.70;99.90
8557;DHT22;4316;53.840;10.762;2023-05-18T06:25:48;9.70;99.90
8557;DHT22;4316;53.840;10.762;2023-05-18T06:28:28;9.90;99.90
8557;DHT22;4316;53.840;10.762;2023-05-18T06:30:59;9.90;99.90
8557;DHT22;4316;53.840;10.762;2023-05-18T06:33:47;9.90;99.90
8557;DHT22;4316;53.840;10.762;2023-05-18T06:36:17;9.90;99.90
8557;DHT22;4316;53.840;10.762;2023-05-18T06:38:43;10.00;99.90
8557;DHT22;4316;53.840;10.762;2023-05-18T06:41:08;10.10;99.90
8557;DHT22;4316;53.840;10.762;2023-05-18T06:43:34;10.00;99.90
8557;DHT22;4316;53.840;10.762;2023-05-18T06:46:20;10.00;99.90
8557;DHT22;4316;53.840;10.762;2023-05-18T06:48:47;10.00;99.90
8557;DHT22;4316;53.840;10.762;2023-05-18T06:51:12;10.00;99.90
8557;DHT22;4316;53.840;10.762;2023-05-18T06:53:40;10.10;99.90
8557;DHT22;4316;53.840;10.762;2023-05-18T06:56:06;10.10;99.90
8557;DHT22;4316;53.840;10.762;2023-05-18T06:58:32;10.10;99.90
8557;DHT22;4316;53.840;10.762;2023-05-18T07:01:01;10.00;99.90
8557;DHT22;4316;53.840;10.762;2023-05-18T07:03:27;10.10;99.90
8557;DHT22;4316;53.840;10.762;2023-05-18T07:05:54;10.10;99.90
8557;DHT22;4316;53.840;10.762;2023-05-18T07:08:19;10.10;99.90
8557;DHT22;4316;53.840;10.762;2023-05-18T07:10:45;10.20;99.90
8557;DHT22;4316;53.840;10.762;2023-05-18T07:13:11;10.20;99.90
8557;DHT22;4316;53.840;10.762;2023-05-18T07:15:37;11.40;99.90
8557;DHT22;4316;53.840;10.762;2023-05-18T07:18:03;10.30;99.90
8557;DHT22;4316;53.840;10.762;2023-05-18T07:20:28;10.30;99.90
8557;DHT22;4316;53.840;10.762;2023-05-18T07:22:54;10.20;99.90
8557;DHT22;4316;53.840;10.762;2023-05-18T07:25:21;10.20;99.90
8557;DHT22;4316;53.840;10.762;2023-05-18T07:27:46;10.40;99.90
8557;DHT22;4316;53.840;10.762;2023-05-18T07:30:12;10.50;99.90
8557;DHT22;4316;53.840;10.762;2023-05-18T07:32:38;10.70;99.90
8557;DHT22;4316;53.840;10.762;2023-05-18T07:35:03;10.80;99.90
8557;DHT22;4316;53.840;10.762;2023-05-18T07:37:29;10.90;99.90
8557;DHT22;4316;53.840;10.762;2023-05-18T07:39:55;11.00;99.90
8557;DHT22;4316;53.840;10.762;2023-05-18T07:42:21;10.90;99.90
8557;DHT22;4316;53.840;10.762;2023-05-18T07:44:47;11.00;99.90
8557;DHT22;4316;53.840;10.762;2023-05-18T07:47:12;11.10;99.90
8557;DHT22;4316;53.840;10.762;2023-05-18T07:49:38;11.20;99.90
8557;DHT22;4316;53.840;10.762;2023-05-18T07:52:06;11.10;99.90
8557;DHT22;4316;53.840;10.762;2023-05-18T07:54:33;10.70;99.90
8557;DHT22;4316;53.840;10.762;2023-05-18T07:56:58;11.10;99.90
8557;DHT22;4316;53.840;10.762;2023-05-18T07:59:24;12.10;99.90
8557;DHT22;4316;53.840;10.762;2023-05-18T08:01:49;12.90;98.70
8557;DHT22;4316;53.840;10.762;2023-05-18T08:04:15;13.00;98.40
8557;DHT22;4316;53.840;10.762;2023-05-18T08:06:40;13.60;99.00
8557;DHT22;4316;53.840;10.762;2023-05-18T08:09:06;14.20;97.30
8557;DHT22;4316;53.840;10.762;2023-05-18T08:11:32;13.70;97.10
8557;DHT22;4316;53.840;10.762;2023-05-18T08:13:57;13.20;97.60
8557;DHT22;4316;53.840;10.762;2023-05-18T08:16:23;13.20;97.90
8557;DHT22;4316;53.840;10.762;2023-05-18T08:18:49;13.10;97.60
8557;DHT22;4316;53.840;10.762;2023-05-18T08:21:15;13.00;97.90
8557;DHT22;4316;53.840;10.762;2023-05-18T08:23:41;13.00;97.80
8557;DHT22;4316;53.840;10.762;2023-05-18T08:26:07;13.10;97.50
8557;DHT22;4316;53.840;10.762;2023-05-18T08:28:34;13.50;98.00
8557;DHT22;4316;53.840;10.762;2023-05-18T08:30:59;14.30;97.10
8557;DHT22;4316;53.840;10.762;2023-05-18T08:33:25;14.80;96.90
8557;DHT22;4316;53.840;10.762;2023-05-18T08:35:50;15.30;95.80
8557;DHT22;4316;53.840;10.762;2023-05-18T08:38:16;16.00;96.10
8557;DHT22;4316;53.840;10.762;2023-05-18T08:41:01;16.30;93.80
8557;DHT22;4316;53.840;10.762;2023-05-18T08:43:30;16.10;93.90
8557;DHT22;4316;53.840;10.762;2023-05-18T08:46:12;16.10;93.70
8557;DHT22;4316;53.840;10.762;2023-05-18T08:48:44;15.70;93.60
8557;DHT22;4316;53.840;10.762;2023-05-18T08:51:11;15.90;93.90
8557;DHT22;4316;53.840;10.762;2023-05-18T08:53:39;15.60;94.10
8557;DHT22;4316;53.840;10.762;2023-05-18T08:56:05;15.60;94.20
8557;DHT22;4316;53.840;10.762;2023-05-18T08:58:43;15.60;94.80
8557;DHT22;4316;53.840;10.762;2023-05-18T09:01:10;15.90;94.80
8557;DHT22;4316;53.840;10.762;2023-05-18T09:03:37;15.60;94.20
8557;DHT22;4316;53.840;10.762;2023-05-18T09:06:03;14.90;94.20
8557;DHT22;4316;53.840;10.762;2023-05-18T09:08:29;14.90;94.90
8557;DHT22;4316;53.840;10.762;2023-05-18T09:10:56;15.20;95.00
8557;DHT22;4316;53.840;10.762;2023-05-18T09:13:23;15.80;95.70
8557;DHT22;4316;53.840;10.762;2023-05-18T09:15:48;16.30;94.10
8557;DHT22;4316;53.840;10.762;2023-05-18T09:18:15;16.90;93.30
8557;DHT22;4316;53.840;10.762;2023-05-18T09:20:41;17.20;93.30
8557;DHT22;4316;53.840;10.762;2023-05-18T09:23:07;17.30;92.60
8557;DHT22;4316;53.840;10.762;2023-05-18T09:25:32;17.40;92.60
8557;DHT22;4316;53.840;10.762;2023-05-18T09:28:00;17.30;92.30
8557;DHT22;4316;53.840;10.762;2023-05-18T09:30:27;16.80;92.70
8557;DHT22;4316;53.840;10.762;2023-05-18T09:32:53;16.80;93.30
8557;DHT22;4316;53.840;10.762;2023-05-18T09:35:19;16.90;92.80
8557;DHT22;4316;53.840;10.762;2023-05-18T09:37:44;17.20;92.50
8557;DHT22;4316;53.840;10.762;2023-05-18T09:40:10;17.20;92.80
8557;DHT22;4316;53.840;10.762;2023-05-18T09:42:41;17.00;92.20
8557;DHT22;4316;53.840;10.762;2023-05-18T09:45:18;16.90;93.00
8557;DHT22;4316;53.840;10.762;2023-05-18T09:47:44;17.30;91.60
8557;DHT22;4316;53.840;10.762;2023-05-18T09:50:10;17.60;91.60
8557;DHT22;4316;53.840;10.762;2023-05-18T09:52:43;17.60;92.20
8557;DHT22;4316;53.840;10.762;2023-05-18T09:55:15;17.80;91.40
8557;DHT22;4316;53.840;10.762;2023-05-18T09:57:46;17.70;90.80
8557;DHT22;4316;53.840;10.762;2023-05-18T10:00:13;17.60;91.40
8557;DHT22;4316;53.840;10.762;2023-05-18T10:02:45;17.60;91.30
8557;DHT22;4316;53.840;10.762;2023-05-18T10:05:20;18.00;92.10
8557;DHT22;4316;53.840;10.762;2023-05-18T10:07:46;18.00;91.10
8557;DHT22;4316;53.840;10.762;2023-05-18T10:10:16;17.90;91.70
8557;DHT22;4316;53.840;10.762;2023-05-18T10:12:42;16.30;92.40
8557;DHT22;4316;53.840;10.762;2023-05-18T10:15:09;16.90;93.20
8557;DHT22;4316;53.840;10.762;2023-05-18T10:17:39;17.10;92.20
8557;DHT22;4316;53.840;10.762;2023-05-18T10:20:08;17.60;92.50
8557;DHT22;4316;53.840;10.762;2023-05-18T10:22:35;18.20;91.80
8557;DHT22;4316;53.840;10.762;2023-05-18T10:25:04;18.50;91.10
8557;DHT22;4316;53.840;10.762;2023-05-18T10:27:34;18.40;91.00
8557;DHT22;4316;53.840;10.762;2023-05-18T10:30:01;18.40;91.50
8557;DHT22;4316;53.840;10.762;2023-05-18T10:32:29;18.40;91.50
8557;DHT22;4316;53.840;10.762;2023-05-18T10:34:58;18.10;91.20
8557;DHT22;4316;53.840;10.762;2023-05-18T10:37:24;18.30;91.60
8557;DHT22;4316;53.840;10.762;2023-05-18T10:39:55;18.40;91.00
8557;DHT22;4316;53.840;10.762;2023-05-18T10:42:22;18.70;91.50
8557;DHT22;4316;53.840;10.762;2023-05-18T10:44:51;19.10;91.20
8557;DHT22;4316;53.840;10.762;2023-05-18T10:47:18;19.40;90.80
8557;DHT22;4316;53.840;10.762;2023-05-18T10:49:47;19.00;90.30
8557;DHT22;4316;53.840;10.762;2023-05-18T10:52:15;18.80;90.60
8557;DHT22;4316;53.840;10.762;2023-05-18T10:54:41;19.00;90.70
8557;DHT22;4316;53.840;10.762;2023-05-18T10:57:10;19.30;90.20
8557;DHT22;4316;53.840;10.762;2023-05-18T10:59:40;19.40;90.10
8557;DHT22;4316;53.840;10.762;2023-05-18T11:02:08;19.30;90.50
8557;DHT22;4316;53.840;10.762;2023-05-18T11:04:38;19.50;90.50
8557;DHT22;4316;53.840;10.762;2023-05-18T11:07:04;19.70;91.20
8557;DHT22;4316;53.840;10.762;2023-05-18T11:09:30;19.40;90.00
8557;DHT22;4316;53.840;10.762;2023-05-18T11:11:58;18.90;90.10
8557;DHT22;4316;53.840;10.762;2023-05-18T11:14:26;19.10;91.10
8557;DHT22;4316;53.840;10.762;2023-05-18T11:16:52;19.60;90.50
8557;DHT22;4316;53.840;10.762;2023-05-18T11:19:17;19.70;89.60
8557;DHT22;4316;53.840;10.762;2023-05-18T11:24:23;19.20;89.80
8557;DHT22;4316;53.840;10.762;2023-05-18T11:26:51;19.20;90.50
8557;DHT22;4316;53.840;10.762;2023-05-18T11:31:45;18.90;90.30
8557;DHT22;4316;53.840;10.762;2023-05-18T11:34:43;18.00;90.10
8557;DHT22;4316;53.840;10.762;2023-05-18T11:37:13;16.80;91.70
8557;DHT22;4316;53.840;10.762;2023-05-18T11:39:39;17.60;92.30
8557;DHT22;4316;53.840;10.762;2023-05-18T11:42:09;17.80;91.10
8557;DHT22;4316;53.840;10.762;2023-05-18T11:44:36;18.30;91.20
8557;DHT22;4316;53.840;10.762;2023-05-18T11:47:08;18.30;90.70
8557;DHT22;4316;53.840;10.762;2023-05-18T11:49:47;18.50;90.50
8557;DHT22;4316;53.840;10.762;2023-05-18T11:52:18;18.90;91.50
8557;DHT22;4316;53.840;10.762;2023-05-18T11:54:45;19.50;90.60
8557;DHT22;4316;53.840;10.762;2023-05-18T11:57:14;19.60;90.20
8557;DHT22;4316;53.840;10.762;2023-05-18T12:00:04;19.70;90.50
8557;DHT22;4316;53.840;10.762;2023-05-18T12:02:38;19.80;90.30
8557;DHT22;4316;53.840;10.762;2023-05-18T12:05:08;19.80;90.40
8557;DHT22;4316;53.840;10.762;2023-05-18T12:07:34;20.20;90.10
8557;DHT22;4316;53.840;10.762;2023-05-18T12:10:03;20.00;88.30
8557;DHT22;4316;53.840;10.762;2023-05-18T12:12:29;19.40;88.70
8557;DHT22;4316;53.840;10.762;2023-05-18T12:15:00;18.90;90.30
8557;DHT22;4316;53.840;10.762;2023-05-18T12:17:46;19.00;90.50
8557;DHT22;4316;53.840;10.762;2023-05-18T12:20:17;19.10;90.30
8557;DHT22;4316;53.840;10.762;2023-05-18T12:22:47;18.90;90.60
8557;DHT22;4316;53.840;10.762;2023-05-18T12:25:22;19.20;89.40
8557;DHT22;4316;53.840;10.762;2023-05-18T12:27:51;17.50;90.60
8557;DHT22;4316;53.840;10.762;2023-05-18T12:30:18;16.80;91.10
8557;DHT22;4316;53.840;10.762;2023-05-18T12:32:46;17.10;91.90
8557;DHT22;4316;53.840;10.762;2023-05-18T12:35:12;17.80;91.60
8557;DHT22;4316;53.840;10.762;2023-05-18T12:37:45;17.60;91.10
8557;DHT22;4316;53.840;10.762;2023-05-18T12:40:16;17.60;91.50
8557;DHT22;4316;53.840;10.762;2023-05-18T12:42:58;17.70;91.40
8557;DHT22;4316;53.840;10.762;2023-05-18T12:45:27;17.10;91.50
8557;DHT22;4316;53.840;10.762;2023-05-18T12:47:53;17.20;92.00
8557;DHT22;4316;53.840;10.762;2023-05-18T12:50:21;17.30;92.30
8557;DHT22;4316;53.840;10.762;2023-05-18T12:52:47;17.80;92.00
8557;DHT22;4316;53.840;10.762;2023-05-18T12:55:20;18.10;90.70
8557;DHT22;4316;53.840;10.762;2023-05-18T12:58:00;18.30;91.10
8557;DHT22;4316;53.840;10.762;2023-05-18T13:00:30;18.00;90.80
8557;DHT22;4316;53.840;10.762;2023-05-18T13:03:04;17.60;90.80
8557;DHT22;4316;53.840;10.762;2023-05-18T13:05:30;17.80;91.70
8557;DHT22;4316;53.840;10.762;2023-05-18T13:07:56;18.40;92.30
8557;DHT22;4316;53.840;10.762;2023-05-18T13:10:21;19.00;91.20
8557;DHT22;4316;53.840;10.762;2023-05-18T13:12:49;18.80;90.50
8557;DHT22;4316;53.840;10.762;2023-05-18T13:15:19;18.50;90.50
8557;DHT22;4316;53.840;10.762;2023-05-18T13:17:57;18.20;90.60
8557;DHT22;4316;53.840;10.762;2023-05-18T13:20:34;17.90;91.80
8557;DHT22;4316;53.840;10.762;2023-05-18T13:23:09;18.50;91.90
8557;DHT22;4316;53.840;10.762;2023-05-18T13:25:35;18.80;90.60
8557;DHT22;4316;53.840;10.762;2023-05-18T13:28:04;17.10;90.80
8557;DHT22;4316;53.840;10.762;2023-05-18T13:30:32;17.20;91.80
8557;DHT22;4316;53.840;10.762;2023-05-18T13:32:58;17.80;92.00
8557;DHT22;4316;53.840;10.762;2023-05-18T13:35:24;17.90;91.00
8557;DHT22;4316;53.840;10.762;2023-05-18T13:37:50;17.40;91.30
8557;DHT22;4316;53.840;10.762;2023-05-18T13:40:17;17.50;91.50
8557;DHT22;4316;53.840;10.762;2023-05-18T13:42:44;17.90;92.10
8557;DHT22;4316;53.840;10.762;2023-05-18T13:45:11;17.60;91.70
8557;DHT22;4316;53.840;10.762;2023-05-18T13:47:40;17.60;90.80
8557;DHT22;4316;53.840;10.762;2023-05-18T13:50:07;17.90;90.80
8557;DHT22;4316;53.840;10.762;2023-05-18T13:52:33;17.70;91.00
8557;DHT22;4316;53.840;10.762;2023-05-18T13:54:59;18.00;91.30
8557;DHT22;4316;53.840;10.762;2023-05-18T13:57:25;18.10;90.60
8557;DHT22;4316;53.840;10.762;2023-05-18T13:59:53;17.80;90.80
8557;DHT22;4316;53.840;10.762;2023-05-18T14:02:19;17.30;91.10
8557;DHT22;4316;53.840;10.762;2023-05-18T14:04:44;17.80;91.60
8557;DHT22;4316;53.840;10.762;2023-05-18T14:07:10;17.00;90.80
8557;DHT22;4316;53.840;10.762;2023-05-18T14:09:36;17.30;91.30
8557;DHT22;4316;53.840;10.762;2023-05-18T14:12:02;17.50;90.90
8557;DHT22;4316;53.840;10.762;2023-05-18T14:14:29;17.80;90.50
8557;DHT22;4316;53.840;10.762;2023-05-18T14:16:55;17.80;91.00
8557;DHT22;4316;53.840;10.762;2023-05-18T14:19:21;18.10;90.50
8557;DHT22;4316;53.840;10.762;2023-05-18T14:21:46;18.10;89.40
8557;DHT22;4316;53.840;10.762;2023-05-18T14:24:12;18.00;90.40
8557;DHT22;4316;53.840;10.762;2023-05-18T14:26:40;17.30;90.00
8557;DHT22;4316;53.840;10.762;2023-05-18T14:29:05;17.10;90.90
8557;DHT22;4316;53.840;10.762;2023-05-18T14:31:31;17.60;91.20
8557;DHT22;4316;53.840;10.762;2023-05-18T14:33:56;18.10;90.90
8557;DHT22;4316;53.840;10.762;2023-05-18T14:36:22;18.10;91.10
8557;DHT22;4316;53.840;10.762;2023-05-18T14:38:48;17.40;91.10
8557;DHT22;4316;53.840;10.762;2023-05-18T14:41:13;17.00;91.60
8557;DHT22;4316;53.840;10.762;2023-05-18T14:43:39;16.60;92.20
8557;DHT22;4316;53.840;10.762;2023-05-18T14:46:05;16.50;92.60
8557;DHT22;4316;53.840;10.762;2023-05-18T14:48:30;15.90;92.80
8557;DHT22;4316;53.840;10.762;2023-05-18T14:50:56;16.10;93.60
8557;DHT22;4316;53.840;10.762;2023-05-18T14:53:21;16.90;93.00
8557;DHT22;4316;53.840;10.762;2023-05-18T14:55:47;17.30;92.50
8557;DHT22;4316;53.840;10.762;2023-05-18T14:58:12;17.70;91.90
8557;DHT22;4316;53.840;10.762;2023-05-18T15:00:42;18.00;91.50
8557;DHT22;4316;53.840;10.762;2023-05-18T15:03:08;18.30;91.10
8557;DHT22;4316;53.840;10.762;2023-05-18T15:05:34;18.40;91.20
8557;DHT22;4316;53.840;10.762;2023-05-18T15:08:00;18.50;91.60
8557;DHT22;4316;53.840;10.762;2023-05-18T15:10:25;17.30;91.70
8557;DHT22;4316;53.840;10.762;2023-05-18T15:12:51;17.10;92.70
8557;DHT22;4316;53.840;10.762;2023-05-18T15:15:17;17.60;92.90
8557;DHT22;4316;53.840;10.762;2023-05-18T15:17:42;17.80;92.50
8557;DHT22;4316;53.840;10.762;2023-05-18T15:20:09;18.00;91.50
8557;DHT22;4316;53.840;10.762;2023-05-18T15:22:35;17.90;92.00
8557;DHT22;4316;53.840;10.762;2023-05-18T15:25:03;17.90;92.20
8557;DHT22;4316;53.840;10.762;2023-05-18T15:27:31;18.00;92.40
8557;DHT22;4316;53.840;10.762;2023-05-18T15:29:56;18.00;92.00
8557;DHT22;4316;53.840;10.762;2023-05-18T15:32:22;17.70;92.80
8557;DHT22;4316;53.840;10.762;2023-05-18T15:34:48;17.70;92.30
8557;DHT22;4316;53.840;10.762;2023-05-18T15:37:13;17.80;92.90
8557;DHT22;4316;53.840;10.762;2023-05-18T15:39:39;18.00;92.60
8557;DHT22;4316;53.840;10.762;2023-05-18T15:42:04;18.20;92.50
8557;DHT22;4316;53.840;10.762;2023-05-18T15:44:30;18.10;92.50
8557;DHT22;4316;53.840;10.762;2023-05-18T15:46:56;18.00;93.10
8557;DHT22;4316;53.840;10.762;2023-05-18T15:49:21;18.00;92.20
8557;DHT22;4316;53.840;10.762;2023-05-18T15:51:49;18.20;92.70
8557;DHT22;4316;53.840;10.762;2023-05-18T15:54:16;17.80;92.00
8557;DHT22;4316;53.840;10.762;2023-05-18T15:56:42;17.90;92.00
8557;DHT22;4316;53.840;10.762;2023-05-18T15:59:08;18.00;90.60
8557;DHT22;4316;53.840;10.762;2023-05-18T16:01:34;17.90;90.50
8557;DHT22;4316;53.840;10.762;2023-05-18T16:03:59;17.90;89.50
8557;DHT22;4316;53.840;10.762;2023-05-18T16:06:25;17.90;90.80
8557;DHT22;4316;53.840;10.762;2023-05-18T16:08:51;17.80;90.40
8557;DHT22;4316;53.840;10.762;2023-05-18T16:11:16;17.80;90.70